Time;durP1;ratioP1;P1;durP2;ratioP2;P2;SDS_P1;SDS_P2;PMS_P1;PMS_P2;Temp;Humidity;BMP_temperature;BMP_pressure;BME280_temperature;BME280_humidity;BME280_pressure;Samples;Min_cycle;Max_cycle;Signal;HPM_P1;HPM_P2
2023/08/01 00:00:30;;;;;;;8.98;3.80;;;17.30;99.90;;;;;;5077540;28;19915;-81
2023/08/01 00:02:56;;;;;;;;;;;16.80;99.90;;;;;;5093120;28;20051;-81
2023/08/01 00:05:22;;;;;;;5.75;3.55;;;16.50;99.90;;;;;;5095409;28;20052;-81
2023/08/01 00:07:47;;;;;;;6.30;3.17;;;17.20;99.90;;;;;;5077763;28;20050;-81
2023/08/01 00:10:13;;;;;;;5.35;2.83;;;16.70;99.90;;;;;;5094085;28;20027;-81
2023/08/01 00:12:39;;;;;;;8.60;3.10;;;16.40;99.90;;;;;;5044749;28;20039;-81
2023/08/01 00:15:05;;;;;;;;;;;17.10;99.90;;;;;;5078475;28;20042;-81
2023/08/01 00:17:30;;;;;;;6.63;3.30;;;16.60;99.90;;;;;;5056960;28;19919;-81
2023/08/01 00:19:56;;;;;;;5.75;3.75;;;17.10;99.90;;;;;;5075724;28;20074;-81
2023/08/01 00:22:22;;;;;;;6.20;3.10;;;16.20;99.90;;;;;;5076521;28;20493;-80
2023/08/01 00:24:48;;;;;;;8.10;3.22;;;16.40;99.90;;;;;;5094059;28;20113;-80
2023/08/01 00:27:14;;;;;;;6.07;3.10;;;16.90;99.90;;;;;;5093863;28;20034;-80
2023/08/01 00:29:39;;;;;;;6.47;2.90;;;16.80;99.90;;;;;;5094321;28;20047;-80
2023/08/01 00:32:05;;;;;;;;;;;16.60;99.90;;;;;;5076495;28;20043;-80
2023/08/01 00:34:31;;;;;;;5.57;3.20;;;16.20;99.90;;;;;;5093701;28;19922;-81
2023/08/01 00:36:57;;;;;;;4.90;2.60;;;16.70;99.90;;;;;;5091458;28;20044;-80
2023/08/01 00:39:22;;;;;;;;;;;16.70;99.90;;;;;;5088671;28;20478;-80
2023/08/01 00:41:48;;;;;;;4.05;2.42;;;16.80;99.90;;;;;;5092459;28;19947;-80
2023/08/01 00:44:14;;;;;;;2.97;2.08;;;16.80;99.90;;;;;;5091889;28;20039;-80
2023/08/01 00:46:39;;;;;;;;;;;16.20;99.90;;;;;;5093943;28;20036;-80
2023/08/01 00:49:05;;;;;;;3.47;2.30;;;16.30;99.90;;;;;;5093966;28;20036;-81
2023/08/01 00:51:32;;;;;;;4.55;2.58;;;16.50;99.90;;;;;;5093077;28;20035;-80
2023/08/01 00:53:58;;;;;;;3.45;2.22;;;16.00;99.90;;;;;;5090852;28;20046;-81
2023/08/01 00:56:24;;;;;;;5.60;2.78;;;16.50;99.90;;;;;;5076052;28;20119;-80
2023/08/01 00:58:50;;;;;;;2.92;2.00;;;16.10;99.90;;;;;;5075465;28;20122;-81
2023/08/01 01:01:15;;;;;;;3.53;2.20;;;16.10;99.90;;;;;;5076549;28;20035;-81
2023/08/01 01:03:42;;;;;;;3.00;2.00;;;16.00;99.90;;;;;;5092530;28;20521;-80
2023/08/01 01:06:19;;;;;;;2.70;1.90;;;16.60;99.90;;;;;;5075624;28;20131;-80
2023/08/01 01:08:45;;;;;;;2.85;2.00;;;16.50;99.90;;;;;;5098887;28;20067;-80
2023/08/01 01:11:10;;;;;;;3.95;2.05;;;16.50;99.90;;;;;;5091034;28;20486;-81
2023/08/01 01:13:36;;;;;;;2.75;2.00;;;16.00;99.90;;;;;;5094088;28;20115;-80
2023/08/01 01:16:02;;;;;;;4.43;2.25;;;16.40;99.90;;;;;;5077878;28;20074;-80
2023/08/01 01:18:27;;;;;;;2.53;1.85;;;15.80;99.90;;;;;;5075900;28;20040;-80
2023/08/01 01:20:53;;;;;;;;;;;15.60;99.90;;;;;;5093095;28;20051;-80
2023/08/01 01:23:21;;;;;;;2.42;1.73;;;16.30;99.90;;;;;;5094382;28;19920;-80
2023/08/01 01:25:49;;;;;;;2.92;1.80;;;15.60;99.90;;;;;;5077050;28;20522;-81
2023/08/01 01:28:15;;;;;;;2.55;1.65;;;16.00;99.90;;;;;;5076061;28;20050;-81
2023/08/01 01:30:43;;;;;;;3.42;1.63;;;15.40;99.90;;;;;;5093986;28;20047;-80
2023/08/01 01:33:09;;;;;;;2.00;1.50;;;15.40;99.90;;;;;;5093858;28;20039;-80
2023/08/01 01:35:36;;;;;;;2.17;1.70;;;15.60;99.90;;;;;;5093795;28;20089;-80
2023/08/01 01:38:03;;;;;;;2.83;1.60;;;15.80;99.90;;;;;;5093332;28;20100;-80
2023/08/01 01:40:33;;;;;;;1.60;1.30;;;15.70;99.90;;;;;;5090573;28;20449;-81
2023/08/01 01:42:59;;;;;;;2.03;1.40;;;15.80;99.90;;;;;;5074610;28;20043;-80
2023/08/01 01:45:25;;;;;;;2.38;1.40;;;15.40;99.90;;;;;;5076720;28;20132;-80
2023/08/01 01:47:51;;;;;;;4.47;1.20;;;15.60;99.90;;;;;;5076181;28;20114;-80
2023/08/01 01:50:17;;;;;;;2.42;1.55;;;15.90;99.90;;;;;;5093508;28;20047;-80
2023/08/01 01:52:44;;;;;;;2.85;1.50;;;15.20;99.90;;;;;;5092786;28;20040;-80
2023/08/01 01:55:09;;;;;;;2.92;1.90;;;15.20;99.90;;;;;;5076106;28;20059;-80
2023/08/01 01:57:36;;;;;;;2.05;1.63;;;15.40;99.90;;;;;;5076440;28;20406;-80
2023/08/01 02:00:10;;;;;;;2.67;1.90;;;15.20;99.90;;;;;;5092928;28;20050;-80
2023/08/01 02:02:36;;;;;;;4.22;2.13;;;15.00;99.90;;;;;;5088779;28;20122;-81
2023/08/01 02:05:03;;;;;;;2.65;2.10;;;15.40;99.90;;;;;;5090888;28;20070;-80
2023/08/01 02:07:30;;;;;;;3.35;1.80;;;15.80;99.90;;;;;;5087090;28;20036;-80
2023/08/01 02:09:55;;;;;;;;;;;15.80;99.90;;;;;;5093888;28;20387;-80
2023/08/01 02:12:21;;;;;;;1.95;1.52;;;15.10;99.90;;;;;;5093697;28;19924;-80
2023/08/01 02:14:47;;;;;;;3.33;1.70;;;15.70;99.90;;;;;;5093820;28;20044;-80
2023/08/01 02:17:13;;;;;;;2.40;1.60;;;15.80;99.90;;;;;;5079110;28;20067;-80
2023/08/01 02:19:38;;;;;;;2.58;1.73;;;15.00;99.90;;;;;;5093504;28;20055;-80
2023/08/01 02:22:04;;;;;;;2.90;1.55;;;15.20;99.90;;;;;;5076909;28;20548;-80
2023/08/01 02:24:30;;;;;;;1.80;1.42;;;15.70;99.90;;;;;;5093834;28;20036;-80
2023/08/01 02:26:56;;;;;;;4.43;1.73;;;15.30;99.90;;;;;;5093975;28;20046;-80
2023/08/01 02:29:21;;;;;;;2.78;1.65;;;15.70;99.90;;;;;;5093745;28;20506;-80
2023/08/01 02:31:47;;;;;;;2.83;1.65;;;15.40;99.90;;;;;;5093281;28;20036;-80
2023/08/01 02:34:13;;;;;;;2.20;1.73;;;15.50;99.90;;;;;;5092550;28;20044;-80
2023/08/01 02:36:40;;;;;;;2.45;1.50;;;15.00;99.90;;;;;;5073697;28;20537;-80
2023/08/01 02:39:06;;;;;;;2.75;1.50;;;15.30;99.90;;;;;;5073450;28;20039;-80
2023/08/01 02:41:32;;;;;;;2.28;1.60;;;14.80;99.90;;;;;;5093792;28;20137;-80
2023/08/01 02:43:58;;;;;;;3.05;1.77;;;15.50;99.90;;;;;;5076570;28;20044;-80
2023/08/01 02:46:23;;;;;;;2.95;1.40;;;14.70;99.90;;;;;;5093433;28;20558;-80
2023/08/01 02:48:49;;;;;;;1.80;1.30;;;14.70;99.90;;;;;;5076282;28;20530;-80
2023/08/01 02:51:15;;;;;;;2.47;1.70;;;14.70;99.90;;;;;;5075761;28;20158;-80
2023/08/01 02:53:41;;;;;;;2.35;1.42;;;14.70;99.90;;;;;;5093330;28;20078;-80
2023/08/01 02:56:09;;;;;;;2.47;1.52;;;15.60;99.90;;;;;;5075038;28;20035;-80
2023/08/01 02:58:36;;;;;;;1.65;1.40;;;15.50;99.90;;;;;;5092482;28;20111;-80
2023/08/01 03:01:06;;;;;;;2.95;1.73;;;14.70;99.90;;;;;;5092606;28;20171;-80
2023/08/01 03:03:32;;;;;;;2.47;1.50;;;15.50;99.90;;;;;;5072697;28;20524;-80
2023/08/01 03:05:58;;;;;;;2.38;1.67;;;14.70;99.90;;;;;;5072482;28;20105;-80
2023/08/01 03:08:24;;;;;;;2.40;1.48;;;15.50;99.90;;;;;;5089792;28;20391;-80
2023/08/01 03:10:50;;;;;;;2.33;1.60;;;14.60;99.90;;;;;;5084866;28;20055;-80
2023/08/01 03:13:16;;;;;;;;;;;14.80;99.90;;;;;;5091991;28;20046;-80
2023/08/01 03:15:42;;;;;;;3.00;1.50;;;15.40;99.90;;;;;;5086008;28;19994;-80
2023/08/01 03:18:07;;;;;;;2.15;1.63;;;15.50;99.90;;;;;;5075955;28;20498;-80
2023/08/01 03:20:33;;;;;;;1.75;1.35;;;15.00;99.90;;;;;;5068500;28;20468;-80
2023/08/01 03:22:59;;;;;;;;;;;15.20;99.90;;;;;;5086366;28;20040;-80
2023/08/01 03:25:25;;;;;;;3.55;1.98;;;14.70;99.90;;;;;;5078399;28;19916;-80
2023/08/01 03:27:50;;;;;;;5.57;2.47;;;14.80;99.90;;;;;;5092847;28;20036;-80
2023/08/01 03:30:16;;;;;;;3.30;2.15;;;14.90;99.90;;;;;;5075661;28;20048;-80
2023/08/01 03:32:42;;;;;;;3.50;2.33;;;15.90;99.90;;;;;;5093043;28;20118;-80
2023/08/01 03:35:07;;;;;;;3.55;2.35;;;15.60;99.90;;;;;;5092679;28;20036;-80
2023/08/01 03:37:33;;;;;;;4.35;2.63;;;14.70;99.90;;;;;;5055367;28;20040;-80
2023/08/01 03:39:59;;;;;;;4.70;2.97;;;16.10;99.90;;;;;;5067899;28;20051;-81
2023/08/01 03:42:24;;;;;;;4.43;2.70;;;15.70;99.90;;;;;;5087556;28;20082;-80
2023/08/01 03:44:50;;;;;;;5.15;3.22;;;16.00;99.90;;;;;;5091724;28;20036;-80
2023/08/01 03:47:15;;;;;;;4.95;3.20;;;15.70;99.90;;;;;;5091369;28;20036;-80
2023/08/01 03:49:41;;;;;;;4.25;2.92;;;15.30;99.90;;;;;;5090905;28;20082;-81
2023/08/01 03:52:07;;;;;;;6.35;3.80;;;16.20;99.90;;;;;;5091781;28;20046;-80
2023/08/01 03:54:32;;;;;;;6.07;3.75;;;15.00;99.90;;;;;;5074455;28;20071;-80
2023/08/01 03:56:58;;;;;;;6.57;3.42;;;15.20;99.90;;;;;;5090601;28;20039;-80
2023/08/01 03:59:24;;;;;;;5.68;3.42;;;15.70;99.90;;;;;;5069413;28;20047;-79
2023/08/01 04:01:50;;;;;;;6.60;3.20;;;15.50;99.90;;;;;;5076441;28;20036;-79
2023/08/01 04:04:16;;;;;;;4.50;2.70;;;15.70;99.90;;;;;;5094768;28;20043;-80
2023/08/01 04:06:42;;;;;;;5.20;2.97;;;16.10;99.90;;;;;;5095012;28;20066;-80
2023/08/01 04:09:08;;;;;;;5.05;2.50;;;16.10;99.90;;;;;;5074146;28;20526;-80
2023/08/01 04:11:33;;;;;;;4.55;2.40;;;16.20;99.90;;;;;;5060190;28;20459;-80
2023/08/01 04:13:59;;;;;;;6.50;2.47;;;15.90;99.90;;;;;;5078250;28;20042;-80
2023/08/01 04:16:25;;;;;;;3.33;2.30;;;16.10;99.90;;;;;;5093812;28;20059;-80
2023/08/01 04:18:50;;;;;;;2.80;1.80;;;16.10;99.90;;;;;;5074698;28;20479;-80
2023/08/01 04:21:16;;;;;;;2.50;1.58;;;14.90;99.90;;;;;;5095161;28;20039;-80
2023/08/01 04:23:42;;;;;;;2.72;1.73;;;14.80;99.90;;;;;;5094470;28;20066;-80
2023/08/01 04:26:08;;;;;;;2.67;1.40;;;14.90;99.90;;;;;;5093450;28;20039;-80
2023/08/01 04:28:34;;;;;;;2.75;1.60;;;15.90;99.90;;;;;;5094431;28;20039;-80
2023/08/01 04:31:00;;;;;;;2.25;1.38;;;16.10;99.90;;;;;;5077717;28;20424;-79
2023/08/01 04:33:26;;;;;;;;;;;16.20;99.90;;;;;;5076644;28;20135;-80
2023/08/01 04:35:52;;;;;;;2.25;1.30;;;16.10;99.90;;;;;;5093278;28;20052;-80
2023/08/01 04:38:17;;;;;;;1.83;1.27;;;14.90;99.90;;;;;;5067314;28;20031;-79
2023/08/01 04:40:43;;;;;;;1.75;1.00;;;15.40;99.90;;;;;;5093450;28;20188;-79
2023/08/01 04:43:10;;;;;;;2.00;1.05;;;15.10;99.90;;;;;;5082225;28;20046;-79
2023/08/01 04:45:36;;;;;;;2.28;1.10;;;15.30;99.90;;;;;;5093684;28;20051;-79
2023/08/01 04:48:02;;;;;;;1.85;1.05;;;14.80;99.90;;;;;;5060434;28;20035;-83
2023/08/01 04:50:27;;;;;;;1.83;1.08;;;15.30;99.90;;;;;;5076415;28;20035;-82
2023/08/01 04:52:53;;;;;;;2.08;1.20;;;15.70;99.90;;;;;;5061065;28;20437;-82
2023/08/01 04:55:18;;;;;;;1.15;0.90;;;15.90;99.90;;;;;;5094420;28;20180;-83
2023/08/01 04:57:44;;;;;;;2.78;1.10;;;15.80;99.90;;;;;;5077320;28;20039;-82
2023/08/01 05:00:11;;;;;;;1.85;0.90;;;15.60;99.90;;;;;;5094290;28;20066;-82
2023/08/01 05:02:37;;;;;;;2.20;1.10;;;15.50;99.90;;;;;;5093446;28;20047;-83
2023/08/01 05:05:03;;;;;;;3.58;1.20;;;15.00;99.90;;;;;;5074136;28;20040;-81
2023/08/01 05:07:29;;;;;;;1.73;0.90;;;15.00;99.90;;;;;;5075873;28;20031;-81
2023/08/01 05:09:55;;;;;;;;;;;15.10;99.90;;;;;;5093890;28;20073;-80
2023/08/01 05:12:21;;;;;;;1.75;1.05;;;16.20;99.90;;;;;;5077645;28;19915;-82
2023/08/01 05:14:47;;;;;;;2.90;1.52;;;15.60;99.90;;;;;;5093822;28;20047;-82
2023/08/01 05:17:12;;;;;;;1.55;0.90;;;16.30;99.90;;;;;;5076996;28;20050;-82
2023/08/01 05:19:38;;;;;;;2.67;1.20;;;15.80;99.90;;;;;;5073969;28;20044;-82
2023/08/01 05:22:04;;;;;;;2.67;1.33;;;16.30;99.90;;;;;;5076837;28;20035;-82
2023/08/01 05:24:30;;;;;;;;;;;15.80;99.90;;;;;;5076734;28;20116;-82
2023/08/01 05:26:55;;;;;;;3.00;1.30;;;16.00;99.90;;;;;;5078712;28;19951;-83
2023/08/01 05:29:21;;;;;;;1.83;1.10;;;15.40;99.90;;;;;;5094147;28;20052;-83
2023/08/01 05:31:47;;;;;;;1.70;1.13;;;16.40;99.90;;;;;;5075878;28;20040;-83
2023/08/01 05:34:12;;;;;;;3.40;1.20;;;15.30;99.90;;;;;;5094589;28;20039;-82
2023/08/01 05:36:38;;;;;;;2.50;0.98;;;15.70;99.90;;;;;;5077621;28;20047;-83
2023/08/01 05:39:04;;;;;;;1.40;0.90;;;15.30;99.90;;;;;;5095525;27;20043;-82
2023/08/01 05:41:30;;;;;;;1.67;0.95;;;16.30;99.90;;;;;;5101067;28;20379;-83
2023/08/01 05:43:58;;;;;;;1.45;1.02;;;16.30;99.90;;;;;;5098212;28;20028;-82
2023/08/01 05:46:24;;;;;;;1.60;1.00;;;15.50;99.90;;;;;;5098048;28;20118;-83
2023/08/01 05:48:50;;;;;;;1.75;1.00;;;15.40;99.90;;;;;;5098122;28;20127;-82
2023/08/01 05:51:15;;;;;;;3.03;1.35;;;15.10;99.90;;;;;;5098267;28;20043;-83
2023/08/01 05:53:41;;;;;;;4.35;1.30;;;15.40;99.90;;;;;;5076335;28;20105;-82
2023/08/01 05:56:07;;;;;;;1.60;1.00;;;15.40;99.90;;;;;;5099426;28;20031;-83
2023/08/01 05:58:32;;;;;;;3.22;1.67;;;15.90;99.90;;;;;;5098173;28;20901;-83
2023/08/01 06:00:58;;;;;;;2.38;1.10;;;15.90;99.90;;;;;;5079814;28;20453;-83
2023/08/01 06:03:24;;;;;;;2.17;1.25;;;15.60;99.90;;;;;;5097102;28;20044;-83
2023/08/01 06:05:50;;;;;;;2.10;1.33;;;15.30;99.90;;;;;;5077092;28;20043;-83
2023/08/01 06:08:15;;;;;;;3.30;1.75;;;16.60;99.90;;;;;;5078400;28;20100;-83
2023/08/01 06:10:42;;;;;;;2.38;1.33;;;16.10;99.90;;;;;;5080368;28;20114;-82
2023/08/01 06:13:08;;;;;;;2.33;1.50;;;15.40;99.90;;;;;;5096766;28;20050;-83
2023/08/01 06:15:34;;;;;;;;;;;15.60;99.90;;;;;;5098057;28;20039;-83
2023/08/01 06:17:59;;;;;;;2.42;1.45;;;16.40;99.90;;;;;;5096512;28;19916;-82
2023/08/01 06:20:25;;;;;;;2.45;1.40;;;16.40;99.90;;;;;;5079310;28;20039;-83
2023/08/01 06:22:51;;;;;;;2.55;1.73;;;15.90;99.90;;;;;;5097031;28;20049;-84
2023/08/01 06:25:17;;;;;;;3.08;1.33;;;15.30;99.90;;;;;;5096266;28;20108;-84
2023/08/01 06:27:43;;;;;;;3.15;1.50;;;15.40;99.90;;;;;;5075811;28;20044;-83
2023/08/01 06:30:09;;;;;;;2.17;1.60;;;16.00;99.90;;;;;;5083377;28;20044;-83
2023/08/01 06:32:34;;;;;;;;;;;15.50;99.90;;;;;;5096721;28;20044;-83
2023/08/01 06:35:00;;;;;;;1.65;1.42;;;16.40;99.90;;;;;;5096396;28;19922;-83
2023/08/01 06:37:26;;;;;;;2.97;1.38;;;16.50;99.90;;;;;;5078876;28;20051;-83
2023/08/01 06:39:51;;;;;;;3.92;1.40;;;15.40;99.90;;;;;;5091033;28;20039;-83
2023/08/01 06:42:17;;;;;;;3.95;1.67;;;15.40;99.90;;;;;;5095788;28;20062;-83
2023/08/01 06:44:43;;;;;;;3.20;1.67;;;15.50;99.90;;;;;;5093621;28;20050;-83
2023/08/01 06:47:08;;;;;;;4.45;1.77;;;16.50;99.90;;;;;;5079550;28;20517;-83
2023/08/01 06:49:34;;;;;;;2.45;1.35;;;15.70;99.90;;;;;;5078043;28;20040;-84
2023/08/01 06:52:00;;;;;;;4.03;1.70;;;15.50;99.90;;;;;;5095319;28;20120;-83
2023/08/01 06:54:25;;;;;;;2.38;1.20;;;15.50;99.90;;;;;;5095100;28;20032;-83
2023/08/01 06:56:51;;;;;;;1.27;1.00;;;15.50;99.90;;;;;;5079002;28;20036;-83
2023/08/01 06:59:17;;;;;;;2.28;1.23;;;15.90;99.90;;;;;;5079837;28;20044;-85
2023/08/01 07:01:43;;;;;;;2.88;1.10;;;16.30;99.90;;;;;;5096122;28;20042;-83
2023/08/01 07:04:13;;;;;;;2.05;1.30;;;16.00;99.90;;;;;;5092536;28;20050;-83
2023/08/01 07:06:40;;;;;;;2.65;1.40;;;16.50;99.90;;;;;;5079259;28;20044;-82
2023/08/01 07:09:06;;;;;;;3.13;1.33;;;15.70;99.90;;;;;;5096129;28;20097;-83
2023/08/01 07:11:32;;;;;;;3.00;1.38;;;16.60;99.90;;;;;;5095119;28;20035;-84
2023/08/01 07:13:58;;;;;;;1.48;1.05;;;16.20;99.90;;;;;;5077681;28;20096;-82
2023/08/01 07:16:24;;;;;;;;;;;16.40;99.90;;;;;;5060875;28;20115;-83
2023/08/01 07:18:50;;;;;;;2.83;1.17;;;16.20;99.90;;;;;;5097000;28;20665;-83
2023/08/01 07:21:17;;;;;;;3.25;1.00;;;16.70;99.90;;;;;;5078599;28;20040;-83
2023/08/01 07:23:43;;;;;;;1.85;1.00;;;16.40;99.90;;;;;;5095953;28;20042;-83
2023/08/01 07:26:09;;;;;;;2.65;0.88;;;16.20;99.90;;;;;;5095936;28;20032;-83
2023/08/01 07:28:35;;;;;;;2.53;0.93;;;16.50;99.90;;;;;;5096289;28;20084;-83
2023/08/01 07:31:06;;;;;;;2.28;0.88;;;15.90;99.90;;;;;;5096302;28;20119;-84
2023/08/01 07:33:32;;;;;;;2.55;1.08;;;16.60;99.90;;;;;;5078793;28;20508;-83
2023/08/01 07:35:58;;;;;;;2.40;0.65;;;16.00;99.90;;;;;;5078367;28;20073;-83
2023/08/01 07:38:24;;;;;;;1.52;0.77;;;16.60;99.90;;;;;;5100533;28;20124;-83
2023/08/01 07:40:50;;;;;;;1.80;0.60;;;16.40;99.90;;;;;;5079217;28;20043;-83
2023/08/01 07:43:16;;;;;;;;;;;16.50;99.90;;;;;;5078362;28;20035;-83
2023/08/01 07:45:42;;;;;;;3.40;0.80;;;16.10;99.90;;;;;;5096060;28;19916;-83
2023/08/01 07:48:08;;;;;;;2.35;0.80;;;16.40;99.90;;;;;;5079051;28;20036;-83
2023/08/01 07:50:33;;;;;;;1.33;0.80;;;15.70;99.90;;;;;;5062618;28;20596;-83
2023/08/01 07:52:59;;;;;;;1.48;0.73;;;16.50;99.90;;;;;;5102408;28;20039;-83
2023/08/01 07:55:25;;;;;;;1.88;0.98;;;16.20;99.90;;;;;;5061211;28;20160;-83
2023/08/01 07:57:50;;;;;;;2.25;0.75;;;16.60;99.90;;;;;;5095713;28;20040;-83
2023/08/01 08:00:16;;;;;;;;;;;16.20;99.90;;;;;;5079687;28;20054;-83
2023/08/01 08:02:43;;;;;;;2.13;0.68;;;16.20;99.90;;;;;;5077182;28;19966;-83
2023/08/01 08:05:09;;;;;;;2.05;0.60;;;16.80;99.90;;;;;;5095418;28;20031;-83
2023/08/01 08:07:36;;;;;;;3.42;0.95;;;17.00;99.90;;;;;;5078701;28;20438;-83
2023/08/01 08:10:03;;;;;;;2.40;0.80;;;16.80;99.90;;;;;;5070210;28;20027;-83
2023/08/01 08:12:29;;;;;;;6.20;1.23;;;17.30;99.90;;;;;;5095574;28;20047;-82
2023/08/01 08:14:54;;;;;;;;;;;16.80;99.90;;;;;;5078887;28;20483;-81
2023/08/01 08:17:20;;;;;;;4.03;1.13;;;16.80;99.90;;;;;;5078429;28;19922;-81
2023/08/01 08:19:46;;;;;;;3.20;0.90;;;16.80;99.90;;;;;;5066960;28;20067;-83
2023/08/01 08:22:11;;;;;;;;;;;16.80;99.90;;;;;;5093903;28;20075;-81
2023/08/01 08:24:37;;;;;;;6.38;1.73;;;17.00;99.90;;;;;;5095127;28;19967;-81
2023/08/01 08:27:03;;;;;;;5.20;1.50;;;16.50;99.90;;;;;;5094268;28;20081;-82
2023/08/01 08:29:29;;;;;;;;;;;16.30;99.90;;;;;;5086517;28;20044;-82
2023/08/01 08:31:55;;;;;;;4.20;1.10;;;16.20;99.90;;;;;;5078309;28;20006;-82
2023/08/01 08:34:21;;;;;;;3.53;1.00;;;16.50;99.90;;;;;;5095176;28;20066;-83
2023/08/01 08:36:47;;;;;;;2.15;0.82;;;16.10;99.90;;;;;;5078215;28;20043;-82
2023/08/01 08:39:12;;;;;;;2.20;0.82;;;16.00;99.90;;;;;;5078693;28;20114;-82
2023/08/01 08:41:57;;;;;;;4.18;1.50;;;16.00;99.90;;;;;;5060950;28;20562;-82
2023/08/01 08:44:29;;;;;;;3.85;1.17;;;16.40;99.90;;;;;;5095204;28;20023;-84
2023/08/01 08:46:59;;;;;;;2.95;1.02;;;16.60;99.90;;;;;;5078222;28;20036;-84
2023/08/01 08:49:26;;;;;;;1.48;0.75;;;16.40;99.90;;;;;;5077693;28;20504;-82
2023/08/01 08:51:54;;;;;;;5.47;1.25;;;16.60;99.90;;;;;;5061998;28;20120;-83
2023/08/01 08:54:20;;;;;;;3.38;1.20;;;15.70;99.90;;;;;;5078072;28;20394;-82
2023/08/01 08:56:46;;;;;;;4.38;1.17;;;16.00;99.90;;;;;;5094591;28;20501;-83
2023/08/01 08:59:12;;;;;;;;;;;16.40;99.90;;;;;;5076900;28;20104;-83
2023/08/01 09:01:39;;;;;;;5.13;1.40;;;16.00;99.90;;;;;;5094294;28;19994;-82
2023/08/01 09:04:05;;;;;;;3.58;1.10;;;16.90;99.90;;;;;;5057427;28;20064;-82
2023/08/01 09:06:45;;;;;;;2.95;1.05;;;16.60;99.90;;;;;;5063732;28;20033;-82
2023/08/01 09:09:14;;;;;;;4.65;1.10;;;17.30;99.90;;;;;;5074587;28;20037;-82
2023/08/01 09:11:58;;;;;;;3.67;1.38;;;17.00;99.90;;;;;;5055596;28;20040;-83
2023/08/01 09:14:24;;;;;;;2.47;0.90;;;17.10;99.90;;;;;;5070856;28;20040;-83
2023/08/01 09:16:50;;;;;;;;;;;17.00;99.90;;;;;;5056255;28;20123;-83
2023/08/01 09:19:20;;;;;;;4.53;1.40;;;16.60;99.90;;;;;;5080392;28;19946;-83
2023/08/01 09:21:47;;;;;;;2.80;1.08;;;17.20;99.90;;;;;;5054415;28;20090;-83
2023/08/01 09:24:17;;;;;;;2.25;1.00;;;17.00;99.90;;;;;;5054346;28;20037;-82
2023/08/01 09:26:44;;;;;;;3.53;1.00;;;16.70;99.90;;;;;;5037758;28;20086;-82
2023/08/01 09:29:10;;;;;;;2.08;1.00;;;17.00;99.90;;;;;;5054617;28;20111;-82
2023/08/01 09:31:36;;;;;;;;;;;16.90;99.90;;;;;;5071178;28;20573;-82
2023/08/01 09:34:07;;;;;;;2.80;1.02;;;17.20;99.90;;;;;;5069605;28;20002;-82
2023/08/01 09:36:34;;;;;;;3.00;1.10;;;17.20;99.90;;;;;;5054473;28;20140;-82
2023/08/01 09:39:03;;;;;;;3.78;1.13;;;17.10;99.90;;;;;;5053918;28;20029;-81
2023/08/01 09:41:30;;;;;;;2.30;0.80;;;17.10;99.90;;;;;;5046558;28;20093;-82
2023/08/01 09:43:57;;;;;;;1.73;0.90;;;17.30;99.90;;;;;;5082291;28;20498;-82
2023/08/01 09:46:23;;;;;;;2.35;0.90;;;17.60;99.90;;;;;;5070506;28;20055;-82
2023/08/01 09:48:49;;;;;;;1.40;0.82;;;17.30;99.90;;;;;;5054051;28;20063;-82
2023/08/01 09:51:16;;;;;;;;;;;17.40;99.90;;;;;;5037511;28;20301;-82
2023/08/01 09:53:50;;;;;;;;;;;17.20;99.90;;;;;;5070591;28;19916;-82
2023/08/01 09:56:28;;;;;;;3.95;1.25;;;17.50;99.90;;;;;;5056960;28;19924;-82
2023/08/01 09:58:55;;;;;;;3.75;1.10;;;17.30;99.90;;;;;;5053777;28;20040;-82
2023/08/01 10:01:23;;;;;;;2.83;1.27;;;17.60;99.90;;;;;;5070776;28;20129;-82
2023/08/01 10:03:51;;;;;;;2.45;1.00;;;17.70;99.90;;;;;;5079080;28;20045;-82
2023/08/01 10:06:19;;;;;;;4.60;1.33;;;17.60;99.90;;;;;;5088912;28;20560;-81
2023/08/01 10:08:46;;;;;;;3.22;1.02;;;17.40;99.90;;;;;;5090251;28;20040;-81
2023/08/01 10:11:18;;;;;;;2.97;1.23;;;17.40;99.90;;;;;;5073678;28;20364;-82
2023/08/01 10:13:44;;;;;;;5.10;1.30;;;17.30;99.90;;;;;;5053787;28;20040;-82
2023/08/01 10:16:11;;;;;;;3.05;1.27;;;17.30;99.90;;;;;;5083820;28;20044;-83
2023/08/01 10:18:38;;;;;;;2.45;0.93;;;17.60;99.90;;;;;;5089339;28;20410;-82
2023/08/01 10:21:06;;;;;;;4.85;1.20;;;17.70;99.90;;;;;;5090128;28;20479;-82
2023/08/01 10:23:35;;;;;;;5.40;1.20;;;17.80;99.90;;;;;;5089650;28;20052;-82
2023/08/01 10:26:03;;;;;;;2.17;1.02;;;17.80;99.90;;;;;;5073488;28;20042;-81
2023/08/01 10:28:33;;;;;;;3.65;1.30;;;17.70;99.90;;;;;;5093368;28;20040;-81
2023/08/01 10:31:16;;;;;;;2.80;1.20;;;17.80;99.90;;;;;;5094165;28;20459;-81
2023/08/01 10:33:44;;;;;;;5.45;1.20;;;17.70;99.90;;;;;;5075300;28;20027;-81
2023/08/01 10:36:23;;;;;;;4.28;1.40;;;17.70;99.90;;;;;;5094106;28;20040;-81
2023/08/01 10:38:54;;;;;;;5.82;1.40;;;17.70;99.90;;;;;;5088100;28;20509;-81
2023/08/01 10:41:36;;;;;;;2.83;1.17;;;17.80;99.90;;;;;;5086209;28;21028;-82
2023/08/01 10:44:09;;;;;;;3.85;1.10;;;18.00;99.90;;;;;;5051183;28;20036;-80
2023/08/01 10:46:56;;;;;;;3.22;1.13;;;18.50;1.00;;;;;;5085059;28;20040;-80
2023/08/01 10:49:45;;;;;;;6.70;1.38;;;19.00;99.90;;;;;;5092771;28;20032;-80
2023/08/01 10:52:27;;;;;;;3.50;1.27;;;19.30;99.90;;;;;;5075539;28;20402;-81
2023/08/01 10:54:59;;;;;;;5.60;1.38;;;19.30;1.00;;;;;;5076362;28;20044;-81
2023/08/01 10:57:28;;;;;;;4.57;1.10;;;19.20;99.90;;;;;;5093370;28;20048;-82
2023/08/01 10:59:55;;;;;;;3.58;1.05;;;18.90;99.90;;;;;;5091752;28;20040;-81
2023/08/01 11:02:23;;;;;;;2.95;1.10;;;18.70;99.90;;;;;;5076155;28;20080;-82
2023/08/01 11:05:04;;;;;;;3.08;1.00;;;18.60;6.80;;;;;;5075476;28;20387;-82
2023/08/01 11:07:30;;;;;;;5.40;1.60;;;18.90;63.60;;;;;;5088507;28;20082;-82
2023/08/01 11:10:03;;;;;;;3.13;1.10;;;19.40;94.80;;;;;;5092875;28;20437;-83
2023/08/01 11:12:30;;;;;;;6.70;1.40;;;19.80;99.90;;;;;;5068238;28;20040;-81
2023/08/01 11:15:00;;;;;;;2.70;1.05;;;20.10;93.70;;;;;;5083296;28;20039;-81
2023/08/01 11:17:26;;;;;;;4.03;0.95;;;19.80;1.00;;;;;;5077901;28;20043;-80
2023/08/01 11:19:59;;;;;;;4.30;1.08;;;20.00;99.90;;;;;;5077945;28;20119;-83
2023/08/01 11:22:25;;;;;;;2.03;1.00;;;20.10;1.00;;;;;;5096491;28;20054;-82
2023/08/01 11:24:51;;;;;;;3.40;1.10;;;20.20;99.90;;;;;;5096535;28;20047;-82
2023/08/01 11:27:16;;;;;;;;;;;20.40;99.90;;;;;;5078309;28;20118;-82
2023/08/01 11:29:42;;;;;;;3.95;1.10;;;20.10;99.90;;;;;;5096294;28;19980;-82
2023/08/01 11:32:07;;;;;;;;;;;20.10;99.90;;;;;;5102201;28;20062;-82
2023/08/01 11:34:44;;;;;;;3.03;1.00;;;20.10;1.00;;;;;;5079058;28;19967;-83
2023/08/01 11:37:14;;;;;;;;;;;19.80;1.00;;;;;;5096303;28;20044;-82
2023/08/01 11:39:40;;;;;;;2.95;0.93;;;19.80;1.00;;;;;;5095879;28;20382;-82
2023/08/01 11:42:06;;;;;;;3.80;0.88;;;20.10;99.90;;;;;;5078387;28;20059;-82
2023/08/01 11:44:31;;;;;;;3.63;0.90;;;20.30;99.90;;;;;;5095388;28;20487;-82
2023/08/01 11:46:57;;;;;;;;;;;20.00;84.10;;;;;;5109222;27;20047;-82
2023/08/01 11:49:23;;;;;;;3.42;1.20;;;19.80;99.90;;;;;;5095834;28;19919;-81
2023/08/01 11:51:49;;;;;;;;;;;19.50;99.90;;;;;;5096369;28;20035;-82
2023/08/01 11:54:17;;;;;;;5.10;1.10;;;19.50;1.00;;;;;;5095615;28;20377;-81
2023/08/01 11:56:43;;;;;;;4.15;1.08;;;19.50;99.90;;;;;;5095737;28;20051;-82
2023/08/01 11:59:16;;;;;;;5.00;1.10;;;19.70;99.90;;;;;;5095943;28;20062;-84
2023/08/01 12:01:48;;;;;;;3.03;0.80;;;19.70;99.90;;;;;;5094334;28;20040;-82
2023/08/01 12:04:27;;;;;;;3.33;0.80;;;19.60;99.90;;;;;;5078837;28;20056;-81
2023/08/01 12:06:53;;;;;;;4.53;1.13;;;19.70;1.00;;;;;;5079138;28;20119;-82
2023/08/01 12:09:20;;;;;;;5.00;1.13;;;20.10;93.30;;;;;;5058432;28;20119;-80
2023/08/01 12:11:46;;;;;;;4.53;1.00;;;20.40;99.90;;;;;;5073549;28;20046;-81
2023/08/01 12:14:13;;;;;;;1.95;0.82;;;20.20;99.90;;;;;;5095125;28;20036;-81
2023/08/01 12:16:49;;;;;;;4.50;1.15;;;20.10;1.00;;;;;;5095363;28;20035;-81
2023/08/01 12:19:20;;;;;;;5.38;1.05;;;19.70;1.00;;;;;;5091651;28;20398;-81
2023/08/01 12:21:45;;;;;;;3.03;1.05;;;19.40;99.90;;;;;;5078669;28;20463;-80
2023/08/01 12:24:11;;;;;;;4.32;1.20;;;19.50;1.00;;;;;;5094771;28;20027;-81
2023/08/01 12:26:37;;;;;;;;;;;19.70;99.90;;;;;;5076016;28;20043;-82
2023/08/01 12:29:03;;;;;;;3.40;1.27;;;20.10;1.00;;;;;;5095408;28;19915;-83
2023/08/01 12:31:28;;;;;;;;;;;20.10;1.00;;;;;;5095583;28;20436;-82
2023/08/01 12:33:54;;;;;;;5.22;1.60;;;20.00;1.00;;;;;;5093046;28;19915;-82
2023/08/01 12:36:20;;;;;;;;;;;19.80;99.90;;;;;;5096436;28;20031;-81
2023/08/01 12:38:46;;;;;;;3.08;1.40;;;19.70;99.90;;;;;;5090525;28;19953;-81
2023/08/01 12:41:12;;;;;;;6.32;1.90;;;19.80;80.40;;;;;;5073842;28;20031;-81
2023/08/01 12:43:37;;;;;;;3.03;1.30;;;19.60;1.00;;;;;;5072334;28;20044;-80
2023/08/01 12:46:03;;;;;;;;;;;19.50;99.90;;;;;;5088186;28;20032;-80
2023/08/01 12:48:29;;;;;;;6.80;1.55;;;19.40;99.90;;;;;;5073205;28;19919;-81
2023/08/01 12:50:55;;;;;;;;;;;19.40;99.90;;;;;;5096419;27;20038;-81
2023/08/01 12:53:21;;;;;;;4.47;1.30;;;19.40;99.90;;;;;;5094149;28;20278;-81